Light Rain Showers Current Weather (METAR) For Antalya Airport

All times on the weather descriptions are local

Observed at 19:50 - (12 mins ago)

Light Rain Showers

16°C

Light Rain Showers
Clouds: Few Clouds at 1,500ft, Broken Clouds at 2,500ft
Wind: 170° at 03 knots, varying from 140° to 210
Visibility: Greater than 10km
QNH: 1021
Dew Point: 15°C
Runway in Use: Likely Runways 18L/C/R

Sunrise Today: 06:47
Sunset Today: 17:34

Forecast Weather (TAF) For Antalya Airport

Issued at 02:00 - (17 days ago)


Runway in Use: Unable to determine, wind is clam

Forecast valid until 02:00 on Monday

METAR/TAF RAW METAR / TAF

LTAI 121750Z 17003KT 140V210 9999 -SHRA FEW015CB BKN025 16/15 Q1021 NOSIG

Weather Widget

Put weather from any of our airports on your website with our weather widget.

Find Another Search

Airport Search


Please Wait Please Wait - Loading
Close
Close

Login

Username:

Password:

Remember Me:

Remember me on this computer

Forgotten your password? Get a reset password sent to your registered e-mail address

Close

User Private Message

Subject:

Message: